sensor_id;sensor_type;location;lat;lon;timestamp;pressure;altitude;pressure_sealevel;temperature;humidity
3844;BME280;1937;51.444;6.484;2023-02-22T00:01:42;68039.13;;;7.79;100.00
3844;BME280;1937;51.444;6.484;2023-02-22T00:04:18;68003.34;;;7.66;100.00
3844;BME280;1937;51.444;6.484;2023-02-22T00:06:47;67998.91;;;7.78;100.00
3844;BME280;1937;51.444;6.484;2023-02-22T00:09:16;68048.56;;;7.81;100.00
3844;BME280;1937;51.444;6.484;2023-02-22T00:11:48;68020.66;;;7.97;99.85
3844;BME280;1937;51.444;6.484;2023-02-22T00:14:16;67971.50;;;7.83;100.00
3844;BME280;1937;51.444;6.484;2023-02-22T00:16:47;68017.03;;;7.82;100.00
3844;BME280;1937;51.444;6.484;2023-02-22T00:19:17;67945.88;;;7.59;100.00
3844;BME280;1937;51.444;6.484;2023-02-22T00:21:48;68030.88;;;7.72;100.00
3844;BME280;1937;51.444;6.484;2023-02-22T00:24:19;67983.88;;;7.63;100.00
3844;BME280;1937;51.444;6.484;2023-02-22T00:26:52;67935.41;;;7.36;100.00
3844;BME280;1937;51.444;6.484;2023-02-22T00:29:22;67961.19;;;7.41;100.00
3844;BME280;1937;51.444;6.484;2023-02-22T00:31:50;68100.59;;;7.55;100.00
3844;BME280;1937;51.444;6.484;2023-02-22T00:34:21;68075.50;;;7.62;100.00
3844;BME280;1937;51.444;6.484;2023-02-22T00:36:50;68087.16;;;7.61;100.00
3844;BME280;1937;51.444;6.484;2023-02-22T00:39:19;68040.72;;;7.21;100.00
3844;BME280;1937;51.444;6.484;2023-02-22T00:41:48;68018.22;;;7.28;100.00
3844;BME280;1937;51.444;6.484;2023-02-22T00:44:17;68121.34;;;7.47;100.00
3844;BME280;1937;51.444;6.484;2023-02-22T00:46:45;68089.28;;;7.34;100.00
3844;BME280;1937;51.444;6.484;2023-02-22T00:49:15;68101.94;;;7.30;100.00
3844;BME280;1937;51.444;6.484;2023-02-22T00:51:45;68077.53;;;7.24;100.00
3844;BME280;1937;51.444;6.484;2023-02-22T00:54:13;68138.31;;;7.37;100.00
3844;BME280;1937;51.444;6.484;2023-02-22T00:56:45;68129.25;;;7.38;100.00
3844;BME280;1937;51.444;6.484;2023-02-22T00:59:14;68171.00;;;7.43;100.00
3844;BME280;1937;51.444;6.484;2023-02-22T01:01:43;68156.94;;;7.55;100.00
3844;BME280;1937;51.444;6.484;2023-02-22T01:04:11;68266.66;;;7.66;100.00
3844;BME280;1937;51.444;6.484;2023-02-22T01:06:39;68135.53;;;7.46;100.00
3844;BME280;1937;51.444;6.484;2023-02-22T01:09:09;68063.72;;;7.28;100.00
3844;BME280;1937;51.444;6.484;2023-02-22T01:11:37;68042.59;;;7.03;100.00
3844;BME280;1937;51.444;6.484;2023-02-22T01:14:07;68086.09;;;7.03;100.00
3844;BME280;1937;51.444;6.484;2023-02-22T01:16:35;68144.97;;;7.03;100.00
3844;BME280;1937;51.444;6.484;2023-02-22T01:19:04;68161.34;;;6.99;100.00
3844;BME280;1937;51.444;6.484;2023-02-22T01:21:32;68104.09;;;6.83;100.00
3844;BME280;1937;51.444;6.484;2023-02-22T01:24:01;68258.19;;;7.04;100.00
3844;BME280;1937;51.444;6.484;2023-02-22T01:26:31;68308.97;;;7.21;100.00
3844;BME280;1937;51.444;6.484;2023-02-22T01:29:00;68342.44;;;7.19;100.00
3844;BME280;1937;51.444;6.484;2023-02-22T01:31:28;68346.38;;;7.24;100.00
3844;BME280;1937;51.444;6.484;2023-02-22T01:33:56;68358.38;;;7.19;100.00
3844;BME280;1937;51.444;6.484;2023-02-22T01:36:25;68371.19;;;7.32;100.00
3844;BME280;1937;51.444;6.484;2023-02-22T01:38:53;68438.56;;;7.44;100.00
3844;BME280;1937;51.444;6.484;2023-02-22T01:41:22;68322.16;;;7.30;100.00
3844;BME280;1937;51.444;6.484;2023-02-22T01:43:52;68343.63;;;7.20;100.00
3844;BME280;1937;51.444;6.484;2023-02-22T01:46:23;68370.03;;;7.12;100.00
3844;BME280;1937;51.444;6.484;2023-02-22T01:48:55;68341.09;;;7.07;100.00
3844;BME280;1937;51.444;6.484;2023-02-22T01:51:28;68437.56;;;7.28;100.00
3844;BME280;1937;51.444;6.484;2023-02-22T01:54:00;68427.34;;;7.28;100.00
3844;BME280;1937;51.444;6.484;2023-02-22T01:56:32;68391.09;;;7.19;100.00
3844;BME280;1937;51.444;6.484;2023-02-22T01:59:05;68403.91;;;7.06;100.00
3844;BME280;1937;51.444;6.484;2023-02-22T02:01:35;68576.81;;;7.11;100.00
3844;BME280;1937;51.444;6.484;2023-02-22T02:04:09;68556.34;;;7.31;100.00
3844;BME280;1937;51.444;6.484;2023-02-22T02:06:39;68564.84;;;7.36;100.00
3844;BME280;1937;51.444;6.484;2023-02-22T02:09:13;68582.41;;;7.47;100.00
3844;BME280;1937;51.444;6.484;2023-02-22T02:11:44;68542.19;;;7.45;100.00
3844;BME280;1937;51.444;6.484;2023-02-22T02:14:15;68596.63;;;7.59;100.00
3844;BME280;1937;51.444;6.484;2023-02-22T02:16:46;68568.03;;;7.56;100.00
3844;BME280;1937;51.444;6.484;2023-02-22T02:19:21;68634.09;;;7.69;100.00
3844;BME280;1937;51.444;6.484;2023-02-22T02:22:12;68582.03;;;7.57;100.00
3844;BME280;1937;51.444;6.484;2023-02-22T02:25:09;68470.47;;;7.25;100.00
3844;BME280;1937;51.444;6.484;2023-02-22T02:27:48;68544.75;;;7.32;100.00
3844;BME280;1937;51.444;6.484;2023-02-22T02:31:03;68611.13;;;7.34;100.00
3844;BME280;1937;51.444;6.484;2023-02-22T02:33:37;68644.03;;;7.38;100.00
3844;BME280;1937;51.444;6.484;2023-02-22T02:36:12;68498.44;;;7.21;100.00
3844;BME280;1937;51.444;6.484;2023-02-22T02:38:48;68572.69;;;7.21;100.00
3844;BME280;1937;51.444;6.484;2023-02-22T02:41:23;68649.38;;;7.36;100.00
3844;BME280;1937;51.444;6.484;2023-02-22T02:43:56;68725.69;;;7.55;100.00
3844;BME280;1937;51.444;6.484;2023-02-22T02:46:30;68629.06;;;7.34;100.00
3844;BME280;1937;51.444;6.484;2023-02-22T02:49:03;68656.81;;;7.31;100.00
3844;BME280;1937;51.444;6.484;2023-02-22T02:51:37;68672.72;;;7.19;100.00
3844;BME280;1937;51.444;6.484;2023-02-22T02:54:08;68763.97;;;7.22;100.00
3844;BME280;1937;51.444;6.484;2023-02-22T02:56:37;68715.91;;;7.23;100.00
3844;BME280;1937;51.444;6.484;2023-02-22T02:59:26;68827.84;;;7.31;100.00
3844;BME280;1937;51.444;6.484;2023-02-22T03:02:02;68786.69;;;7.33;100.00
3844;BME280;1937;51.444;6.484;2023-02-22T03:04:45;68799.47;;;7.33;100.00
3844;BME280;1937;51.444;6.484;2023-02-22T03:07:24;68842.09;;;7.43;100.00
3844;BME280;1937;51.444;6.484;2023-02-22T03:10:02;68849.50;;;7.32;100.00
3844;BME280;1937;51.444;6.484;2023-02-22T03:12:41;68792.91;;;7.21;100.00
3844;BME280;1937;51.444;6.484;2023-02-22T03:15:21;68781.25;;;7.15;100.00
3844;BME280;1937;51.444;6.484;2023-02-22T03:18:01;68936.06;;;7.38;100.00
3844;BME280;1937;51.444;6.484;2023-02-22T03:20:46;68947.88;;;7.35;100.00
3844;BME280;1937;51.444;6.484;2023-02-22T03:23:24;68900.94;;;7.30;100.00
3844;BME280;1937;51.444;6.484;2023-02-22T03:26:00;68928.19;;;7.40;100.00
3844;BME280;1937;51.444;6.484;2023-02-22T03:28:31;68944.75;;;7.41;100.00
3844;BME280;1937;51.444;6.484;2023-02-22T03:31:04;68952.16;;;7.30;100.00
3844;BME280;1937;51.444;6.484;2023-02-22T03:33:40;68908.69;;;7.15;100.00
3844;BME280;1937;51.444;6.484;2023-02-22T03:36:15;68900.22;;;7.16;100.00
3844;BME280;1937;51.444;6.484;2023-02-22T03:38:47;68889.47;;;7.01;100.00
3844;BME280;1937;51.444;6.484;2023-02-22T03:41:19;68960.56;;;7.22;100.00
3844;BME280;1937;51.444;6.484;2023-02-22T03:43:52;68934.38;;;6.99;100.00
3844;BME280;1937;51.444;6.484;2023-02-22T03:46:22;68945.53;;;6.96;100.00
3844;BME280;1937;51.444;6.484;2023-02-22T03:48:54;68958.25;;;7.05;100.00
3844;BME280;1937;51.444;6.484;2023-02-22T03:51:28;69019.09;;;7.04;100.00
3844;BME280;1937;51.444;6.484;2023-02-22T03:53:57;69070.53;;;7.09;100.00
3844;BME280;1937;51.444;6.484;2023-02-22T03:56:30;69087.75;;;7.17;100.00
3844;BME280;1937;51.444;6.484;2023-02-22T03:59:03;69124.94;;;7.31;100.00
3844;BME280;1937;51.444;6.484;2023-02-22T04:01:33;69120.09;;;7.35;100.00
3844;BME280;1937;51.444;6.484;2023-02-22T04:04:03;69115.22;;;7.25;100.00
3844;BME280;1937;51.444;6.484;2023-02-22T04:06:34;69019.69;;;7.05;100.00
3844;BME280;1937;51.444;6.484;2023-02-22T04:09:02;69191.03;;;7.22;100.00
3844;BME280;1937;51.444;6.484;2023-02-22T04:11:31;69185.72;;;7.39;100.00
3844;BME280;1937;51.444;6.484;2023-02-22T04:13:59;69142.09;;;7.32;100.00
3844;BME280;1937;51.444;6.484;2023-02-22T04:16:28;69028.28;;;7.16;100.00
3844;BME280;1937;51.444;6.484;2023-02-22T04:18:56;68998.13;;;6.95;100.00
3844;BME280;1937;51.444;6.484;2023-02-22T04:21:24;69006.75;;;6.91;100.00
3844;BME280;1937;51.444;6.484;2023-02-22T04:23:55;69066.91;;;6.84;100.00
3844;BME280;1937;51.444;6.484;2023-02-22T04:26:23;69021.31;;;6.71;100.00
3844;BME280;1937;51.444;6.484;2023-02-22T04:28:51;68949.38;;;6.45;100.00
3844;BME280;1937;51.444;6.484;2023-02-22T04:31:21;68947.69;;;6.35;100.00
3844;BME280;1937;51.444;6.484;2023-02-22T04:33:49;68991.94;;;6.33;100.00
3844;BME280;1937;51.444;6.484;2023-02-22T04:36:17;69022.19;;;6.31;100.00
3844;BME280;1937;51.444;6.484;2023-02-22T04:38:48;69073.00;;;6.35;100.00
3844;BME280;1937;51.444;6.484;2023-02-22T04:41:19;69103.34;;;6.39;100.00
3844;BME280;1937;51.444;6.484;2023-02-22T04:43:47;69178.72;;;6.55;100.00
3844;BME280;1937;51.444;6.484;2023-02-22T04:46:16;69092.53;;;6.23;100.00
3844;BME280;1937;51.444;6.484;2023-02-22T04:48:45;69071.22;;;6.18;100.00
3844;BME280;1937;51.444;6.484;2023-02-22T04:51:13;69030.84;;;6.12;100.00
3844;BME280;1937;51.444;6.484;2023-02-22T04:53:43;69095.66;;;6.08;100.00
3844;BME280;1937;51.444;6.484;2023-02-22T04:56:11;69104.88;;;6.05;100.00
3844;BME280;1937;51.444;6.484;2023-02-22T04:58:41;69134.19;;;6.06;100.00
3844;BME280;1937;51.444;6.484;2023-02-22T05:01:09;69144.03;;;5.95;100.00
3844;BME280;1937;51.444;6.484;2023-02-22T05:03:38;69119.16;;;5.87;100.00
3844;BME280;1937;51.444;6.484;2023-02-22T05:06:08;69212.66;;;6.08;100.00
3844;BME280;1937;51.444;6.484;2023-02-22T05:08:38;69367.00;;;6.28;100.00
3844;BME280;1937;51.444;6.484;2023-02-22T05:11:06;69262.91;;;6.27;100.00
3844;BME280;1937;51.444;6.484;2023-02-22T05:13:35;69235.53;;;6.25;100.00
3844;BME280;1937;51.444;6.484;2023-02-22T05:16:06;69180.78;;;6.07;100.00
3844;BME280;1937;51.444;6.484;2023-02-22T05:18:35;69275.69;;;6.27;100.00
3844;BME280;1937;51.444;6.484;2023-02-22T05:21:03;69186.84;;;6.18;100.00
3844;BME280;1937;51.444;6.484;2023-02-22T05:23:33;69256.78;;;6.24;100.00
3844;BME280;1937;51.444;6.484;2023-02-22T05:26:01;69402.59;;;6.39;100.00
3844;BME280;1937;51.444;6.484;2023-02-22T05:28:30;69329.84;;;6.53;100.00
3844;BME280;1937;51.444;6.484;2023-02-22T05:30:58;69294.56;;;6.62;100.00
3844;BME280;1937;51.444;6.484;2023-02-22T05:33:29;69171.22;;;6.38;100.00
3844;BME280;1937;51.444;6.484;2023-02-22T05:35:57;69070.69;;;6.09;100.00
3844;BME280;1937;51.444;6.484;2023-02-22T05:38:25;68975.44;;;6.02;100.00
3844;BME280;1937;51.444;6.484;2023-02-22T05:40:54;69079.22;;;6.14;100.00
3844;BME280;1937;51.444;6.484;2023-02-22T05:43:22;69187.50;;;6.34;100.00
3844;BME280;1937;51.444;6.484;2023-02-22T05:45:52;69247.94;;;6.38;100.00
3844;BME280;1937;51.444;6.484;2023-02-22T05:48:21;69196.97;;;6.51;100.00
3844;BME280;1937;51.444;6.484;2023-02-22T05:50:51;69132.78;;;6.46;100.00
3844;BME280;1937;51.444;6.484;2023-02-22T05:53:19;69090.56;;;6.39;100.00
3844;BME280;1937;51.444;6.484;2023-02-22T05:55:49;69003.53;;;6.32;100.00
3844;BME280;1937;51.444;6.484;2023-02-22T05:58:18;68899.06;;;6.13;100.00
3844;BME280;1937;51.444;6.484;2023-02-22T06:00:47;68923.06;;;5.94;100.00
3844;BME280;1937;51.444;6.484;2023-02-22T06:03:16;68977.06;;;6.05;100.00
3844;BME280;1937;51.444;6.484;2023-02-22T06:05:44;68953.78;;;6.01;100.00
3844;BME280;1937;51.444;6.484;2023-02-22T06:08:14;68922.63;;;5.92;100.00
3844;BME280;1937;51.444;6.484;2023-02-22T06:10:43;68995.28;;;6.01;100.00
3844;BME280;1937;51.444;6.484;2023-02-22T06:13:15;69003.66;;;5.93;100.00
3844;BME280;1937;51.444;6.484;2023-02-22T06:15:45;68979.53;;;5.99;100.00
3844;BME280;1937;51.444;6.484;2023-02-22T06:18:13;68934.53;;;5.87;100.00
3844;BME280;1937;51.444;6.484;2023-02-22T06:20:41;68971.78;;;5.92;100.00
3844;BME280;1937;51.444;6.484;2023-02-22T06:23:10;68945.44;;;5.78;100.00
3844;BME280;1937;51.444;6.484;2023-02-22T06:25:39;69142.13;;;6.11;100.00
3844;BME280;1937;51.444;6.484;2023-02-22T06:28:08;69083.22;;;6.04;100.00
3844;BME280;1937;51.444;6.484;2023-02-22T06:30:37;69023.66;;;5.91;100.00
3844;BME280;1937;51.444;6.484;2023-02-22T06:33:07;69120.97;;;6.04;100.00
3844;BME280;1937;51.444;6.484;2023-02-22T06:35:37;69097.22;;;6.05;100.00
3844;BME280;1937;51.444;6.484;2023-02-22T06:38:06;69098.75;;;6.18;100.00
3844;BME280;1937;51.444;6.484;2023-02-22T06:40:34;69063.38;;;6.20;100.00
3844;BME280;1937;51.444;6.484;2023-02-22T06:43:04;68938.72;;;5.90;100.00
3844;BME280;1937;51.444;6.484;2023-02-22T06:45:32;68937.38;;;5.91;100.00
3844;BME280;1937;51.444;6.484;2023-02-22T06:48:01;69046.50;;;5.93;100.00
3844;BME280;1937;51.444;6.484;2023-02-22T06:50:30;68959.97;;;5.89;100.00
3844;BME280;1937;51.444;6.484;2023-02-22T06:52:59;69064.53;;;5.75;100.00
3844;BME280;1937;51.444;6.484;2023-02-22T06:55:30;69047.25;;;5.91;100.00
3844;BME280;1937;51.444;6.484;2023-02-22T06:57:59;68981.41;;;5.76;100.00
3844;BME280;1937;51.444;6.484;2023-02-22T07:00:30;69060.28;;;5.96;100.00
3844;BME280;1937;51.444;6.484;2023-02-22T07:03:00;69105.22;;;6.16;100.00
3844;BME280;1937;51.444;6.484;2023-02-22T07:05:29;68937.38;;;5.91;100.00
3844;BME280;1937;51.444;6.484;2023-02-22T07:08:03;68920.94;;;5.82;100.00
3844;BME280;1937;51.444;6.484;2023-02-22T07:10:33;68942.13;;;5.80;100.00
3844;BME280;1937;51.444;6.484;2023-02-22T07:13:03;68948.28;;;5.98;100.00
3844;BME280;1937;51.444;6.484;2023-02-22T07:15:35;68977.63;;;6.21;100.00
3844;BME280;1937;51.444;6.484;2023-02-22T07:18:05;68934.44;;;6.10;100.00
3844;BME280;1937;51.444;6.484;2023-02-22T07:20:34;68906.41;;;6.17;100.00
3844;BME280;1937;51.444;6.484;2023-02-22T07:23:02;68892.78;;;6.12;100.00
3844;BME280;1937;51.444;6.484;2023-02-22T07:25:31;68888.44;;;6.10;100.00
3844;BME280;1937;51.444;6.484;2023-02-22T07:27:59;68843.38;;;6.07;100.00
3844;BME280;1937;51.444;6.484;2023-02-22T07:30:29;68907.72;;;5.94;100.00
3844;BME280;1937;51.444;6.484;2023-02-22T07:33:03;68884.06;;;6.24;100.00
3844;BME280;1937;51.444;6.484;2023-02-22T07:35:33;68884.63;;;6.25;100.00
3844;BME280;1937;51.444;6.484;2023-02-22T07:38:03;68862.22;;;6.25;100.00
3844;BME280;1937;51.444;6.484;2023-02-22T07:40:32;68893.88;;;6.22;100.00
3844;BME280;1937;51.444;6.484;2023-02-22T07:43:03;68839.75;;;6.19;100.00
3844;BME280;1937;51.444;6.484;2023-02-22T07:45:33;68878.16;;;6.26;100.00
3844;BME280;1937;51.444;6.484;2023-02-22T07:48:05;68826.84;;;6.28;100.00
3844;BME280;1937;51.444;6.484;2023-02-22T07:50:35;68898.81;;;6.24;100.00
3844;BME280;1937;51.444;6.484;2023-02-22T07:53:05;68856.09;;;6.22;100.00
3844;BME280;1937;51.444;6.484;2023-02-22T07:55:34;68834.69;;;6.26;100.00
3844;BME280;1937;51.444;6.484;2023-02-22T07:58:06;68902.97;;;6.49;100.00
3844;BME280;1937;51.444;6.484;2023-02-22T08:00:37;68930.72;;;6.46;100.00
3844;BME280;1937;51.444;6.484;2023-02-22T08:03:10;68904.66;;;6.59;100.00
3844;BME280;1937;51.444;6.484;2023-02-22T08:05:41;69022.09;;;6.91;100.00
3844;BME280;1937;51.444;6.484;2023-02-22T08:08:13;68904.28;;;6.85;100.00
3844;BME280;1937;51.444;6.484;2023-02-22T08:10:42;68974.00;;;6.85;100.00
3844;BME280;1937;51.444;6.484;2023-02-22T08:13:12;68873.81;;;6.89;100.00
3844;BME280;1937;51.444;6.484;2023-02-22T08:15:43;68885.84;;;6.91;100.00
3844;BME280;1937;51.444;6.484;2023-02-22T08:18:16;68943.22;;;7.22;100.00
3844;BME280;1937;51.444;6.484;2023-02-22T08:20:48;69001.75;;;7.48;100.00
3844;BME280;1937;51.444;6.484;2023-02-22T08:23:18;68769.31;;;7.27;100.00
3844;BME280;1937;51.444;6.484;2023-02-22T08:25:48;68623.63;;;6.96;100.00
3844;BME280;1937;51.444;6.484;2023-02-22T08:28:19;68651.47;;;7.20;100.00
3844;BME280;1937;51.444;6.484;2023-02-22T08:30:49;68699.22;;;7.44;100.00
3844;BME280;1937;51.444;6.484;2023-02-22T08:33:19;68701.81;;;7.50;100.00
3844;BME280;1937;51.444;6.484;2023-02-22T08:35:48;68742.53;;;7.80;100.00
3844;BME280;1937;51.444;6.484;2023-02-22T08:38:20;68779.31;;;8.05;100.00
3844;BME280;1937;51.444;6.484;2023-02-22T08:40:50;68567.66;;;7.80;100.00
3844;BME280;1937;51.444;6.484;2023-02-22T08:43:19;68487.63;;;7.66;100.00
3844;BME280;1937;51.444;6.484;2023-02-22T08:45:47;68518.16;;;7.68;100.00
3844;BME280;1937;51.444;6.484;2023-02-22T08:48:16;68568.63;;;7.90;100.00
3844;BME280;1937;51.444;6.484;2023-02-22T08:50:45;68576.34;;;7.90;100.00
3844;BME280;1937;51.444;6.484;2023-02-22T08:53:14;68607.91;;;8.08;100.00
3844;BME280;1937;51.444;6.484;2023-02-22T08:55:44;68515.22;;;7.99;100.00
3844;BME280;1937;51.444;6.484;2023-02-22T08:58:13;68480.09;;;8.10;100.00
3844;BME280;1937;51.444;6.484;2023-02-22T09:00:42;68521.50;;;8.13;100.00
3844;BME280;1937;51.444;6.484;2023-02-22T09:03:12;68546.38;;;8.47;98.61
3844;BME280;1937;51.444;6.484;2023-02-22T09:05:43;68547.91;;;8.77;99.32
3844;BME280;1937;51.444;6.484;2023-02-22T09:08:11;68563.63;;;8.99;98.05
3844;BME280;1937;51.444;6.484;2023-02-22T09:10:40;68608.22;;;9.35;96.44
3844;BME280;1937;51.444;6.484;2023-02-22T09:13:08;68423.25;;;9.29;93.48
3844;BME280;1937;51.444;6.484;2023-02-22T09:15:37;68362.03;;;8.87;94.89
3844;BME280;1937;51.444;6.484;2023-02-22T09:18:07;68399.25;;;9.06;95.64
3844;BME280;1937;51.444;6.484;2023-02-22T09:20:36;68492.59;;;9.66;94.96
3844;BME280;1937;51.444;6.484;2023-02-22T09:23:06;68459.19;;;9.66;93.07
3844;BME280;1937;51.444;6.484;2023-02-22T09:25:36;68512.56;;;10.03;92.18
3844;BME280;1937;51.444;6.484;2023-02-22T09:28:07;68540.19;;;10.22;90.21
3844;BME280;1937;51.444;6.484;2023-02-22T09:30:37;68335.03;;;10.10;88.26
3844;BME280;1937;51.444;6.484;2023-02-22T09:33:07;68221.47;;;9.90;89.60
3844;BME280;1937;51.444;6.484;2023-02-22T09:35:36;68243.81;;;9.91;90.61
3844;BME280;1937;51.444;6.484;2023-02-22T09:38:10;68277.09;;;10.04;88.31
3844;BME280;1937;51.444;6.484;2023-02-22T09:40:42;68244.78;;;10.12;88.54
3844;BME280;1937;51.444;6.484;2023-02-22T09:43:23;68264.81;;;10.29;88.30
3844;BME280;1937;51.444;6.484;2023-02-22T09:46:03;68426.75;;;10.91;88.12
3844;BME280;1937;51.444;6.484;2023-02-22T09:48:54;68349.78;;;11.00;85.87
3844;BME280;1937;51.444;6.484;2023-02-22T09:51:27;68295.44;;;11.20;82.60
3844;BME280;1937;51.444;6.484;2023-02-22T09:54:01;68386.78;;;11.56;83.17
3844;BME280;1937;51.444;6.484;2023-02-22T09:56:31;68376.38;;;11.80;82.56
3844;BME280;1937;51.444;6.484;2023-02-22T09:59:02;68436.44;;;12.32;80.16
3844;BME280;1937;51.444;6.484;2023-02-22T10:01:35;68225.38;;;11.81;77.94
3844;BME280;1937;51.444;6.484;2023-02-22T10:04:09;68154.34;;;11.42;79.25
3844;BME280;1937;51.444;6.484;2023-02-22T10:06:41;68219.50;;;11.76;79.14
3844;BME280;1937;51.444;6.484;2023-02-22T10:09:13;68293.81;;;12.09;78.79
3844;BME280;1937;51.444;6.484;2023-02-22T10:11:54;68276.59;;;12.19;77.15
3844;BME280;1937;51.444;6.484;2023-02-22T10:14:40;68348.88;;;12.59;77.12
3844;BME280;1937;51.444;6.484;2023-02-22T10:17:15;68340.56;;;12.81;75.59
3844;BME280;1937;51.444;6.484;2023-02-22T10:19:52;68303.22;;;12.80;75.98
3844;BME280;1937;51.444;6.484;2023-02-22T10:22:33;68140.38;;;12.19;74.22
3844;BME280;1937;51.444;6.484;2023-02-22T10:25:08;68161.59;;;12.20;75.39
3844;BME280;1937;51.444;6.484;2023-02-22T10:27:41;68198.94;;;12.32;76.37
3844;BME280;1937;51.444;6.484;2023-02-22T10:30:18;68243.09;;;12.63;74.84
3844;BME280;1937;51.444;6.484;2023-02-22T10:32:51;68279.38;;;12.90;74.84
3844;BME280;1937;51.444;6.484;2023-02-22T10:35:24;68356.72;;;13.26;72.97
3844;BME280;1937;51.444;6.484;2023-02-22T10:37:56;68211.16;;;12.71;73.02
3844;BME280;1937;51.444;6.484;2023-02-22T10:40:29;68230.53;;;12.77;75.21
3844;BME280;1937;51.444;6.484;2023-02-22T10:43:05;68314.75;;;13.14;74.53
3844;BME280;1937;51.444;6.484;2023-02-22T10:45:35;68349.09;;;13.30;74.35
3844;BME280;1937;51.444;6.484;2023-02-22T10:48:07;68353.09;;;13.40;73.50
3844;BME280;1937;51.444;6.484;2023-02-22T10:50:39;68381.06;;;13.67;71.97
3844;BME280;1937;51.444;6.484;2023-02-22T10:53:10;68414.72;;;13.89;72.45
3844;BME280;1937;51.444;6.484;2023-02-22T10:56:08;68384.47;;;13.99;71.43
3844;BME280;1937;51.444;6.484;2023-02-22T10:58:49;68383.06;;;14.00;69.89
3844;BME280;1937;51.444;6.484;2023-02-22T11:01:22;68363.75;;;14.10;70.22
3844;BME280;1937;51.444;6.484;2023-02-22T11:04:00;68399.41;;;13.98;70.36
3844;BME280;1937;51.444;6.484;2023-02-22T11:06:32;68359.38;;;14.08;70.02
3844;BME280;1937;51.444;6.484;2023-02-22T11:09:05;68383.38;;;14.24;70.11
3844;BME280;1937;51.444;6.484;2023-02-22T11:11:39;68255.13;;;13.65;69.76
3844;BME280;1937;51.444;6.484;2023-02-22T11:14:09;68393.50;;;14.15;71.31
3844;BME280;1937;51.444;6.484;2023-02-22T11:16:40;68345.03;;;14.09;69.58
3844;BME280;1937;51.444;6.484;2023-02-22T11:19:19;68276.84;;;13.73;68.27
3844;BME280;1937;51.444;6.484;2023-02-22T11:21:52;68372.78;;;14.15;68.76
3844;BME280;1937;51.444;6.484;2023-02-22T11:24:24;68394.06;;;14.49;66.52
3844;BME280;1937;51.444;6.484;2023-02-22T11:26:58;68273.84;;;14.04;65.93
3844;BME280;1937;51.444;6.484;2023-02-22T11:29:29;68211.38;;;14.01;66.36
3844;BME280;1937;51.444;6.484;2023-02-22T11:32:00;68225.69;;;14.11;66.25
3844;BME280;1937;51.444;6.484;2023-02-22T11:34:32;68260.31;;;14.03;67.13
3844;BME280;1937;51.444;6.484;2023-02-22T11:37:31;68331.69;;;14.29;67.79
3844;BME280;1937;51.444;6.484;2023-02-22T11:40:06;68369.53;;;14.70;66.72
3844;BME280;1937;51.444;6.484;2023-02-22T11:42:39;68352.97;;;14.52;66.80
3844;BME280;1937;51.444;6.484;2023-02-22T11:45:13;68372.94;;;14.69;66.61
3844;BME280;1937;51.444;6.484;2023-02-22T11:47:49;68449.19;;;15.03;66.14
3844;BME280;1937;51.444;6.484;2023-02-22T11:50:24;68439.75;;;15.06;66.31
3844;BME280;1937;51.444;6.484;2023-02-22T11:53:06;68418.25;;;15.24;65.44
3844;BME280;1937;51.444;6.484;2023-02-22T11:55:41;68406.00;;;15.18;64.93
3844;BME280;1937;51.444;6.484;2023-02-22T11:58:29;68340.63;;;14.79;65.02
3844;BME280;1937;51.444;6.484;2023-02-22T12:01:04;68317.00;;;14.65;66.28
3844;BME280;1937;51.444;6.484;2023-02-22T12:03:53;68415.34;;;15.10;65.73
3844;BME280;1937;51.444;6.484;2023-02-22T12:06:30;68295.00;;;14.60;65.82
3844;BME280;1937;51.444;6.484;2023-02-22T12:09:07;68279.50;;;14.49;67.28
3844;BME280;1937;51.444;6.484;2023-02-22T12:11:51;68361.81;;;14.86;67.50
3844;BME280;1937;51.444;6.484;2023-02-22T12:14:32;68437.69;;;15.29;66.27
3844;BME280;1937;51.444;6.484;2023-02-22T12:17:12;68523.59;;;15.54;66.65
3844;BME280;1937;51.444;6.484;2023-02-22T12:19:49;68563.63;;;15.88;64.58
3844;BME280;1937;51.444;6.484;2023-02-22T12:22:21;68426.44;;;15.42;63.21
3844;BME280;1937;51.444;6.484;2023-02-22T12:24:56;68337.94;;;15.01;63.52
3844;BME280;1937;51.444;6.484;2023-02-22T12:27:29;68319.84;;;14.90;62.87
3844;BME280;1937;51.444;6.484;2023-02-22T12:30:03;68340.81;;;14.88;65.33
3844;BME280;1937;51.444;6.484;2023-02-22T12:32:36;68377.72;;;15.15;63.45
3844;BME280;1937;51.444;6.484;2023-02-22T12:35:13;68451.66;;;15.48;62.83
3844;BME280;1937;51.444;6.484;2023-02-22T12:37:51;68446.28;;;15.66;62.14
3844;BME280;1937;51.444;6.484;2023-02-22T12:40:26;68462.88;;;15.73;63.00
3844;BME280;1937;51.444;6.484;2023-02-22T12:43:01;68496.97;;;15.76;61.68
3844;BME280;1937;51.444;6.484;2023-02-22T12:45:37;68505.03;;;16.01;60.53
3844;BME280;1937;51.444;6.484;2023-02-22T12:48:19;68499.94;;;16.05;60.22
3844;BME280;1937;51.444;6.484;2023-02-22T12:50:54;68448.34;;;15.81;61.59
3844;BME280;1937;51.444;6.484;2023-02-22T12:53:29;68414.03;;;15.53;61.75
3844;BME280;1937;51.444;6.484;2023-02-22T12:56:08;68421.41;;;15.62;62.04
3844;BME280;1937;51.444;6.484;2023-02-22T12:58:48;68357.59;;;15.59;61.34
3844;BME280;1937;51.444;6.484;2023-02-22T13:01:22;68437.41;;;15.69;61.32
3844;BME280;1937;51.444;6.484;2023-02-22T13:03:54;68429.69;;;15.58;61.48
3844;BME280;1937;51.444;6.484;2023-02-22T13:06:31;68416.59;;;15.80;61.01
3844;BME280;1937;51.444;6.484;2023-02-22T13:11:58;68421.69;;;15.76;61.84
3844;BME280;1937;51.444;6.484;2023-02-22T13:14:37;68392.97;;;15.67;61.79
3844;BME280;1937;51.444;6.484;2023-02-22T13:17:17;68441.09;;;15.66;63.10
3844;BME280;1937;51.444;6.484;2023-02-22T13:19:54;68464.56;;;15.70;63.46
3844;BME280;1937;51.444;6.484;2023-02-22T13:22:32;68484.59;;;15.76;63.43
3844;BME280;1937;51.444;6.484;2023-02-22T13:25:08;68508.75;;;16.13;62.02
3844;BME280;1937;51.444;6.484;2023-02-22T13:27:43;68534.53;;;16.30;62.53
3844;BME280;1937;51.444;6.484;2023-02-22T13:30:19;68552.91;;;16.39;61.93
3844;BME280;1937;51.444;6.484;2023-02-22T13:33:06;68430.41;;;15.79;62.71
3844;BME280;1937;51.444;6.484;2023-02-22T13:35:51;68456.47;;;15.83;63.45
3844;BME280;1937;51.444;6.484;2023-02-22T13:41:38;68456.13;;;15.54;63.82
3844;BME280;1937;51.444;6.484;2023-02-22T13:44:27;68464.59;;;15.59;64.40
3844;BME280;1937;51.444;6.484;2023-02-22T13:47:21;68358.47;;;15.46;65.66
3844;BME280;1937;51.444;6.484;2023-02-22T13:52:51;68463.22;;;15.76;64.66
3844;BME280;1937;51.444;6.484;2023-02-22T13:55:25;68420.25;;;15.50;65.27
3844;BME280;1937;51.444;6.484;2023-02-22T13:58:03;68411.63;;;15.51;64.75
3844;BME280;1937;51.444;6.484;2023-02-22T14:00:45;68345.38;;;15.52;64.42